Time;durP1;ratioP1;P1;durP2;ratioP2;P2;SDS_P1;SDS_P2;PMS_P1;PMS_P2;Temp;Humidity;BMP_temperature;BMP_pressure;BME280_temperature;BME280_humidity;BME280_pressure;Samples;Min_cycle;Max_cycle;Signal;HPM_P1;HPM_P2
2022/01/20 00:01:43;;;;;;;8.13;3.97;;;;;;;;;;5085135;28;20225;-75
2022/01/20 00:04:18;;;;;;;16.03;5.60;;;;;;;;;;5085674;28;20217;-76
2022/01/20 00:09:49;;;;;;;13.30;4.87;;;;;;;;;;5084041;28;20339;-76
2022/01/20 00:23:31;;;;;;;11.00;4.47;;;;;;;;;;5085337;28;20227;-76
2022/01/20 00:26:03;;;;;;;19.17;4.93;;;;;;;;;;5082993;28;20198;-75
2022/01/20 00:28:41;;;;;;;19.40;4.87;;;;;;;;;;5085892;28;20202;-76
2022/01/20 00:31:25;;;;;;;23.93;4.60;;;;;;;;;;5086887;28;20296;-76
2022/01/20 00:33:57;;;;;;;23.10;4.90;;;;;;;;;;5082713;28;20226;-75
2022/01/20 00:39:11;;;;;;;17.67;4.77;;;;;;;;;;5083020;28;20212;-76
2022/01/20 00:41:38;;;;;;;16.27;4.00;;;;;;;;;;5084850;28;20206;-76
2022/01/20 00:44:05;;;;;;;20.23;4.80;;;;;;;;;;5085966;28;20240;-76
2022/01/20 00:46:32;;;;;;;12.87;3.90;;;;;;;;;;5085911;28;20680;-75
2022/01/20 00:48:59;;;;;;;10.63;3.20;;;;;;;;;;5085930;28;20694;-76
2022/01/20 00:51:27;;;;;;;15.30;3.43;;;;;;;;;;5085889;28;20212;-76
2022/01/20 00:53:54;;;;;;;15.23;3.30;;;;;;;;;;5082348;28;20645;-75
2022/01/20 00:56:23;;;;;;;16.17;3.53;;;;;;;;;;5084825;28;20217;-76
2022/01/20 00:58:50;;;;;;;21.97;4.10;;;;;;;;;;5083422;28;20190;-75
2022/01/20 01:01:17;;;;;;;11.63;2.50;;;;;;;;;;5082359;28;20241;-75
2022/01/20 01:03:44;;;;;;;23.00;3.70;;;;;;;;;;5084418;28;20562;-76
2022/01/20 01:06:23;;;;;;;19.33;3.17;;;;;;;;;;5082667;28;20720;-75
2022/01/20 01:08:50;;;;;;;15.73;3.47;;;;;;;;;;5082386;28;20308;-76
2022/01/20 01:11:19;;;;;;;17.63;3.43;;;;;;;;;;5085098;28;20201;-76
2022/01/20 01:13:49;;;;;;;17.73;3.50;;;;;;;;;;5081290;28;20225;-76
2022/01/20 01:16:19;;;;;;;17.43;4.03;;;;;;;;;;5082442;28;20201;-74
2022/01/20 01:21:42;;;;;;;22.63;3.27;;;;;;;;;;5082825;28;20208;-73
2022/01/20 01:24:10;;;;;;;16.80;3.40;;;;;;;;;;5084827;28;20225;-76
2022/01/20 01:26:37;;;;;;;20.53;4.23;;;;;;;;;;5082625;28;20570;-76
2022/01/20 01:29:17;;;;;;;18.53;4.73;;;;;;;;;;5081266;28;20673;-74
2022/01/20 01:31:44;;;;;;;18.07;4.27;;;;;;;;;;5084690;28;20637;-75
2022/01/20 01:34:14;;;;;;;16.10;4.47;;;;;;;;;;5081576;28;20608;-74
2022/01/20 01:36:50;;;;;;;23.93;5.27;;;;;;;;;;5080694;28;20718;-74
2022/01/20 01:39:18;;;;;;;19.57;4.57;;;;;;;;;;5083640;28;20259;-75
2022/01/20 01:41:46;;;;;;;21.67;5.03;;;;;;;;;;5081742;28;21878;-75
2022/01/20 01:44:21;;;;;;;22.70;5.40;;;;;;;;;;5084356;28;20213;-73
2022/01/20 01:46:49;;;;;;;25.47;5.33;;;;;;;;;;5082010;28;20660;-75
2022/01/20 01:49:17;;;;;;;24.90;5.37;;;;;;;;;;5081862;28;20201;-75
2022/01/20 01:51:44;;;;;;;29.40;5.40;;;;;;;;;;5083521;28;20209;-76
2022/01/20 01:54:11;;;;;;;28.00;5.53;;;;;;;;;;5081979;28;20263;-74
2022/01/20 01:56:38;;;;;;;25.03;5.10;;;;;;;;;;5083165;28;20198;-76
2022/01/20 01:59:06;;;;;;;27.20;5.30;;;;;;;;;;5080350;28;20236;-75
2022/01/20 02:01:36;;;;;;;30.43;5.27;;;;;;;;;;5083262;28;20205;-75
2022/01/20 02:04:13;;;;;;;24.37;5.73;;;;;;;;;;5080965;28;20754;-75
2022/01/20 02:07:17;;;;;;;22.20;5.73;;;;;;;;;;5083915;28;20201;-76
2022/01/20 02:18:12;;;;;;;28.40;6.40;;;;;;;;;;5084378;28;20209;-75
2022/01/20 02:20:41;;;;;;;17.97;5.30;;;;;;;;;;5084269;28;20209;-76
2022/01/20 02:23:08;;;;;;;40.40;6.57;;;;;;;;;;5084527;28;20312;-76
2022/01/20 02:25:37;;;;;;;27.17;7.30;;;;;;;;;;5083508;28;20217;-75
2022/01/20 02:28:05;;;;;;;29.13;6.70;;;;;;;;;;5085170;28;20292;-74
2022/01/20 02:33:36;;;;;;;40.43;7.37;;;;;;;;;;5083439;28;20702;-74
2022/01/20 02:36:09;;;;;;;36.53;8.33;;;;;;;;;;5087068;28;20285;-75
2022/01/20 02:38:40;;;;;;;22.73;6.13;;;;;;;;;;5088394;28;20217;-75
2022/01/20 02:46:38;;;;;;;34.27;7.37;;;;;;;;;;5088825;28;20228;-75
2022/01/20 02:49:07;;;;;;;24.20;7.20;;;;;;;;;;5086915;28;20209;-75
2022/01/20 02:51:36;;;;;;;28.20;7.27;;;;;;;;;;5087485;28;20223;-75
2022/01/20 02:54:03;;;;;;;31.97;6.90;;;;;;;;;;5087274;28;20668;-76
2022/01/20 02:56:30;;;;;;;39.13;6.70;;;;;;;;;;5093227;28;20202;-76
2022/01/20 02:58:58;;;;;;;24.93;6.73;;;;;;;;;;5084053;28;20204;-76
2022/01/20 03:01:25;;;;;;;37.80;7.17;;;;;;;;;;5088070;28;20214;-74
2022/01/20 03:03:52;;;;;;;24.53;6.60;;;;;;;;;;5088332;28;20218;-76
2022/01/20 03:06:19;;;;;;;19.70;6.03;;;;;;;;;;5089509;28;20285;-75
2022/01/20 03:08:48;;;;;;;35.80;7.33;;;;;;;;;;5089577;28;20209;-75
2022/01/20 03:11:15;;;;;;;28.37;7.23;;;;;;;;;;5089610;28;20288;-76
2022/01/20 03:13:42;;;;;;;25.33;6.67;;;;;;;;;;5086773;28;20791;-74
2022/01/20 03:16:09;;;;;;;27.63;7.60;;;;;;;;;;5087615;28;20236;-73
2022/01/20 03:18:36;;;;;;;31.33;7.33;;;;;;;;;;5088961;28;20652;-76
2022/01/20 03:21:04;;;;;;;32.97;7.53;;;;;;;;;;5089299;28;20198;-74
2022/01/20 03:23:31;;;;;;;30.63;7.73;;;;;;;;;;5086441;28;20304;-76
2022/01/20 03:25:59;;;;;;;32.27;7.70;;;;;;;;;;5088599;28;20328;-75
2022/01/20 03:28:26;;;;;;;28.40;7.20;;;;;;;;;;5089725;28;20200;-75
2022/01/20 03:30:53;;;;;;;34.30;7.50;;;;;;;;;;5089972;28;20707;-75
2022/01/20 03:33:21;;;;;;;33.60;8.13;;;;;;;;;;5090332;28;20232;-76
2022/01/20 03:35:50;;;;;;;39.40;7.27;;;;;;;;;;5089470;28;20209;-75
2022/01/20 03:38:17;;;;;;;35.93;7.87;;;;;;;;;;5087197;28;20592;-76
2022/01/20 03:40:44;;;;;;;47.27;7.60;;;;;;;;;;5089152;28;20224;-73
2022/01/20 03:43:13;;;;;;;33.67;7.50;;;;;;;;;;5088622;28;20248;-76
2022/01/20 03:45:41;;;;;;;29.20;7.60;;;;;;;;;;5083545;28;20674;-76
2022/01/20 03:48:11;;;;;;;35.20;7.43;;;;;;;;;;5088928;28;20209;-76
2022/01/20 03:53:24;;;;;;;34.70;7.53;;;;;;;;;;5087804;28;20228;-76
2022/01/20 03:55:51;;;;;;;22.27;6.80;;;;;;;;;;5087049;28;20206;-75
2022/01/20 03:58:19;;;;;;;33.20;7.33;;;;;;;;;;5085985;28;20232;-76
2022/01/20 04:00:47;;;;;;;29.97;7.10;;;;;;;;;;5087323;28;20231;-75
2022/01/20 04:03:15;;;;;;;25.03;7.13;;;;;;;;;;5088152;28;20252;-76
2022/01/20 04:05:55;;;;;;;23.33;6.10;;;;;;;;;;5089670;28;20420;-76
2022/01/20 04:08:23;;;;;;;24.80;5.90;;;;;;;;;;5087628;28;20300;-76
2022/01/20 04:10:50;;;;;;;30.50;6.37;;;;;;;;;;5086185;28;20212;-76
2022/01/20 04:13:18;;;;;;;25.17;5.37;;;;;;;;;;5084412;28;20221;-72
2022/01/20 04:15:48;;;;;;;27.07;5.50;;;;;;;;;;5086827;28;20205;-76
2022/01/20 04:18:21;;;;;;;28.43;5.90;;;;;;;;;;5085428;28;20276;-76
2022/01/20 04:20:48;;;;;;;26.77;5.43;;;;;;;;;;5086663;28;20251;-75
2022/01/20 04:23:15;;;;;;;25.27;5.57;;;;;;;;;;5086260;28;20317;-76
2022/01/20 04:25:42;;;;;;;22.43;5.27;;;;;;;;;;5085929;28;20204;-75
2022/01/20 04:28:09;;;;;;;19.47;5.03;;;;;;;;;;5085108;28;20221;-75
2022/01/20 04:30:37;;;;;;;23.87;5.30;;;;;;;;;;5087210;28;20354;-76
2022/01/20 04:33:05;;;;;;;22.60;5.33;;;;;;;;;;5084794;28;20232;-74
2022/01/20 04:35:32;;;;;;;21.00;4.67;;;;;;;;;;5088919;28;20312;-75
2022/01/20 04:38:00;;;;;;;22.90;4.53;;;;;;;;;;5086111;28;20206;-76
2022/01/20 04:40:28;;;;;;;24.70;4.53;;;;;;;;;;5085872;28;20368;-75
2022/01/20 04:42:55;;;;;;;20.93;4.60;;;;;;;;;;5087775;28;20217;-76
2022/01/20 04:45:28;;;;;;;18.83;4.13;;;;;;;;;;5086565;28;20297;-76
2022/01/20 04:48:12;;;;;;;15.20;3.90;;;;;;;;;;5084384;28;20202;-76
2022/01/20 04:58:55;;;;;;;19.93;4.53;;;;;;;;;;5082457;28;20247;-76
2022/01/20 05:01:22;;;;;;;19.83;5.30;;;;;;;;;;5085396;28;20202;-75
2022/01/20 05:03:50;;;;;;;22.40;4.60;;;;;;;;;;5084434;28;20538;-76
2022/01/20 05:06:18;;;;;;;25.97;5.27;;;;;;;;;;5084638;28;20669;-76
2022/01/20 05:08:45;;;;;;;15.27;4.73;;;;;;;;;;5086833;28;20212;-74
2022/01/20 05:11:14;;;;;;;17.90;4.13;;;;;;;;;;5085557;28;20229;-79
2022/01/20 05:13:41;;;;;;;21.10;4.70;;;;;;;;;;5085123;28;20278;-76
2022/01/20 05:16:09;;;;;;;21.53;5.20;;;;;;;;;;5085376;28;20595;-76
2022/01/20 05:19:07;;;;;;;21.13;4.17;;;;;;;;;;5092065;28;20615;-77
2022/01/20 05:21:35;;;;;;;13.10;4.00;;;;;;;;;;5083525;28;22085;-76
2022/01/20 05:24:03;;;;;;;11.07;2.90;;;;;;;;;;5086148;28;20578;-76
2022/01/20 05:26:30;;;;;;;11.17;3.33;;;;;;;;;;5085292;28;20209;-76
2022/01/20 05:28:57;;;;;;;14.67;4.17;;;;;;;;;;5083532;28;20197;-74
2022/01/20 05:31:25;;;;;;;20.10;4.30;;;;;;;;;;5082147;28;20202;-76
2022/01/20 05:33:52;;;;;;;20.27;3.83;;;;;;;;;;5081702;28;20221;-75
2022/01/20 05:36:19;;;;;;;13.73;3.33;;;;;;;;;;5086300;28;20220;-76
2022/01/20 05:38:47;;;;;;;18.93;4.07;;;;;;;;;;5085207;28;20201;-75
2022/01/20 05:41:15;;;;;;;17.83;3.97;;;;;;;;;;5080846;28;20206;-74
2022/01/20 05:43:42;;;;;;;16.13;3.87;;;;;;;;;;5081170;28;20214;-74
2022/01/20 05:46:14;;;;;;;20.83;4.07;;;;;;;;;;5086023;28;20202;-77
2022/01/20 05:48:47;;;;;;;12.57;3.73;;;;;;;;;;5081274;28;20289;-77
2022/01/20 05:51:14;;;;;;;19.93;5.30;;;;;;;;;;5081031;28;20504;-76
2022/01/20 05:53:41;;;;;;;13.83;3.33;;;;;;;;;;5081446;28;20312;-75
2022/01/20 05:56:10;;;;;;;17.57;3.77;;;;;;;;;;5081328;28;20329;-75
2022/01/20 05:58:37;;;;;;;16.57;3.90;;;;;;;;;;5083767;28;20209;-76
2022/01/20 06:01:04;;;;;;;20.30;3.97;;;;;;;;;;5083995;28;20667;-77
2022/01/20 06:03:37;;;;;;;15.80;3.73;;;;;;;;;;5084988;28;20312;-76
2022/01/20 06:06:05;;;;;;;12.83;3.40;;;;;;;;;;5085557;28;20225;-74
2022/01/20 06:08:33;;;;;;;13.27;3.90;;;;;;;;;;5081355;28;20296;-75
2022/01/20 06:11:00;;;;;;;28.43;4.20;;;;;;;;;;5082645;28;20197;-77
2022/01/20 06:13:29;;;;;;;16.93;3.53;;;;;;;;;;5079586;28;20224;-75
2022/01/20 06:15:56;;;;;;;14.57;3.27;;;;;;;;;;5081186;28;21654;-76
2022/01/20 06:18:23;;;;;;;16.07;3.23;;;;;;;;;;5081288;28;20587;-75
2022/01/20 06:20:51;;;;;;;17.50;3.70;;;;;;;;;;5075093;28;20209;-77
2022/01/20 06:23:18;;;;;;;14.80;3.17;;;;;;;;;;5078174;28;20218;-75
2022/01/20 06:25:45;;;;;;;14.90;3.30;;;;;;;;;;5079158;28;20195;-74
2022/01/20 06:28:13;;;;;;;16.17;3.17;;;;;;;;;;5080200;28;20202;-76
2022/01/20 06:30:42;;;;;;;13.27;3.80;;;;;;;;;;5082312;28;20230;-76
2022/01/20 06:33:09;;;;;;;14.07;3.20;;;;;;;;;;5081280;28;20229;-76
2022/01/20 06:35:37;;;;;;;17.03;3.63;;;;;;;;;;5080629;28;20312;-76
2022/01/20 06:38:04;;;;;;;13.87;2.97;;;;;;;;;;5082456;28;20219;-75
2022/01/20 06:40:32;;;;;;;10.43;3.03;;;;;;;;;;5077036;28;20836;-75
2022/01/20 06:42:59;;;;;;;18.60;2.77;;;;;;;;;;5075343;28;20232;-76
2022/01/20 06:45:26;;;;;;;13.30;3.17;;;;;;;;;;5078123;28;20206;-75
2022/01/20 06:47:55;;;;;;;18.67;3.73;;;;;;;;;;5082585;28;20564;-76
2022/01/20 06:50:23;;;;;;;8.37;2.43;;;;;;;;;;5082258;28;20205;-74
2022/01/20 06:52:50;;;;;;;9.80;2.93;;;;;;;;;;5083574;28;20259;-76
2022/01/20 06:55:18;;;;;;;12.10;3.07;;;;;;;;;;5084319;28;20417;-76
2022/01/20 06:57:45;;;;;;;17.33;3.30;;;;;;;;;;5083813;28;20743;-76
2022/01/20 07:00:14;;;;;;;15.37;4.00;;;;;;;;;;5086249;28;20197;-76
2022/01/20 07:02:41;;;;;;;20.40;3.63;;;;;;;;;;5092407;28;20240;-76
2022/01/20 07:05:34;;;;;;;20.30;3.80;;;;;;;;;;5086853;28;20683;-76
2022/01/20 07:08:03;;;;;;;17.60;4.13;;;;;;;;;;5083224;28;20304;-76
2022/01/20 07:10:30;;;;;;;12.77;3.63;;;;;;;;;;5078894;28;20270;-75
2022/01/20 07:12:57;;;;;;;13.53;4.20;;;;;;;;;;5081814;28;20214;-75
2022/01/20 07:15:25;;;;;;;15.57;3.80;;;;;;;;;;5083755;28;20222;-75
2022/01/20 07:17:52;;;;;;;12.30;3.60;;;;;;;;;;5087814;28;20545;-76
2022/01/20 07:20:19;;;;;;;12.73;3.57;;;;;;;;;;5089138;28;20212;-75
2022/01/20 07:22:46;;;;;;;14.00;3.53;;;;;;;;;;5085403;28;20228;-76
2022/01/20 07:25:15;;;;;;;9.80;3.23;;;;;;;;;;5088293;28;20284;-76
2022/01/20 07:27:42;;;;;;;9.43;2.43;;;;;;;;;;5087897;28;20581;-75
2022/01/20 07:30:10;;;;;;;5.20;1.80;;;;;;;;;;5087142;28;20392;-75
2022/01/20 07:32:38;;;;;;;5.00;1.70;;;;;;;;;;5087821;28;20224;-74
2022/01/20 07:35:06;;;;;;;6.73;1.37;;;;;;;;;;5085112;28;20225;-76
2022/01/20 07:37:33;;;;;;;5.60;1.30;;;;;;;;;;5087656;28;20728;-74
2022/01/20 07:40:00;;;;;;;6.17;1.10;;;;;;;;;;5088900;28;20307;-76
2022/01/20 07:42:28;;;;;;;3.73;1.10;;;;;;;;;;5085657;28;20218;-75
2022/01/20 07:44:55;;;;;;;13.83;1.23;;;;;;;;;;5085850;28;20198;-75
2022/01/20 07:47:23;;;;;;;9.70;1.30;;;;;;;;;;5088877;28;20206;-74
2022/01/20 07:49:50;;;;;;;13.20;1.30;;;;;;;;;;5084318;28;20208;-74
2022/01/20 07:52:17;;;;;;;5.53;1.27;;;;;;;;;;5088159;28;20213;-75
2022/01/20 07:54:44;;;;;;;11.93;1.63;;;;;;;;;;5088578;28;20212;-75
2022/01/20 07:57:11;;;;;;;9.80;1.53;;;;;;;;;;5088798;28;20237;-74
2022/01/20 07:59:40;;;;;;;13.20;1.97;;;;;;;;;;5089024;28;20274;-75
2022/01/20 08:02:07;;;;;;;7.43;1.70;;;;;;;;;;5089195;28;20215;-75
2022/01/20 08:04:34;;;;;;;9.50;1.80;;;;;;;;;;5089575;28;20198;-74
2022/01/20 08:07:02;;;;;;;5.43;1.53;;;;;;;;;;5086456;28;20212;-76
2022/01/20 08:09:29;;;;;;;5.20;1.50;;;;;;;;;;5086933;28;20673;-75
2022/01/20 08:11:56;;;;;;;7.50;1.70;;;;;;;;;;5087764;28;20223;-75
2022/01/20 08:14:25;;;;;;;3.67;1.30;;;;;;;;;;5086882;28;20222;-74
2022/01/20 08:16:53;;;;;;;6.73;1.50;;;;;;;;;;5086597;28;20274;-76
2022/01/20 08:19:20;;;;;;;3.23;1.70;;;;;;;;;;5086221;28;20285;-76
2022/01/20 08:21:48;;;;;;;7.63;1.53;;;;;;;;;;5086602;28;20653;-76
2022/01/20 08:24:15;;;;;;;10.63;1.67;;;;;;;;;;5085081;28;20576;-76
2022/01/20 08:26:42;;;;;;;9.37;2.23;;;;;;;;;;5087619;28;20292;-76
2022/01/20 08:29:09;;;;;;;8.73;1.50;;;;;;;;;;5085955;28;20201;-74
2022/01/20 08:31:36;;;;;;;8.50;1.70;;;;;;;;;;5086847;28;20288;-76
2022/01/20 08:34:05;;;;;;;5.07;1.30;;;;;;;;;;5086438;28;20305;-74
2022/01/20 08:36:32;;;;;;;6.40;1.37;;;;;;;;;;5087066;28;20663;-76
2022/01/20 08:38:59;;;;;;;7.47;1.73;;;;;;;;;;5087193;28;20204;-76
2022/01/20 08:41:26;;;;;;;10.53;1.17;;;;;;;;;;5086147;28;20289;-76
2022/01/20 08:43:53;;;;;;;7.43;1.43;;;;;;;;;;5085035;28;20247;-75
2022/01/20 08:46:23;;;;;;;10.10;1.43;;;;;;;;;;5084588;28;20284;-76
2022/01/20 08:48:50;;;;;;;6.57;1.37;;;;;;;;;;5085198;28;20296;-76
2022/01/20 08:51:19;;;;;;;8.23;1.40;;;;;;;;;;5086389;28;20205;-76
2022/01/20 08:53:46;;;;;;;7.33;1.47;;;;;;;;;;5082476;28;20673;-76
2022/01/20 08:56:13;;;;;;;6.83;1.33;;;;;;;;;;5084959;28;20595;-76
2022/01/20 08:58:40;;;;;;;4.67;1.00;;;;;;;;;;5085154;28;20197;-76
2022/01/20 09:01:08;;;;;;;9.53;1.97;;;;;;;;;;5083134;28;20204;-75
2022/01/20 09:03:42;;;;;;;10.00;1.37;;;;;;;;;;5084869;28;20266;-76
2022/01/20 09:06:09;;;;;;;8.10;1.40;;;;;;;;;;5086444;28;20283;-74
2022/01/20 09:08:38;;;;;;;13.43;1.70;;;;;;;;;;5086096;28;20206;-76
2022/01/20 09:11:17;;;;;;;10.00;1.70;;;;;;;;;;5085192;28;20198;-75
2022/01/20 09:16:29;;;;;;;6.30;1.10;;;;;;;;;;5090185;28;20310;-75
2022/01/20 09:18:56;;;;;;;7.20;1.60;;;;;;;;;;5082399;28;20198;-73
2022/01/20 09:21:24;;;;;;;17.23;4.67;;;;;;;;;;5083125;28;20571;-76
2022/01/20 09:23:52;;;;;;;11.33;2.03;;;;;;;;;;5084839;28;21098;-74
2022/01/20 09:26:19;;;;;;;13.67;1.67;;;;;;;;;;5083086;28;20205;-76
2022/01/20 09:28:47;;;;;;;15.93;5.73;;;;;;;;;;5084117;28;20226;-76
2022/01/20 09:31:14;;;;;;;7.00;1.50;;;;;;;;;;5083748;28;20244;-76
2022/01/20 09:33:42;;;;;;;11.77;1.30;;;;;;;;;;5085279;28;20228;-77
2022/01/20 09:36:10;;;;;;;13.17;2.97;;;;;;;;;;5086554;28;20314;-77
2022/01/20 09:38:37;;;;;;;11.23;3.00;;;;;;;;;;5085500;28;20209;-76
2022/01/20 09:41:06;;;;;;;17.17;5.90;;;;;;;;;;5084550;28;20272;-76
2022/01/20 09:43:33;;;;;;;9.80;2.53;;;;;;;;;;5087340;28;20236;-77
2022/01/20 09:46:01;;;;;;;8.17;1.53;;;;;;;;;;5083756;28;20316;-76
2022/01/20 09:48:28;;;;;;;6.80;1.40;;;;;;;;;;5084707;28;20324;-76
2022/01/20 09:50:56;;;;;;;14.73;1.90;;;;;;;;;;5084788;28;20247;-78
2022/01/20 09:53:26;;;;;;;8.73;1.70;;;;;;;;;;5089088;28;20229;-78
2022/01/20 09:55:53;;;;;;;14.97;3.13;;;;;;;;;;5086265;28;20221;-78
2022/01/20 09:58:22;;;;;;;8.93;1.97;;;;;;;;;;5087033;28;20205;-77
2022/01/20 10:00:51;;;;;;;83.00;34.17;;;;;;;;;;5087014;28;20205;-77
2022/01/20 10:03:19;;;;;;;7.83;1.97;;;;;;;;;;5084522;28;20230;-77
2022/01/20 10:05:48;;;;;;;16.10;6.67;;;;;;;;;;5085552;28;20202;-77
2022/01/20 10:08:17;;;;;;;17.23;5.07;;;;;;;;;;5086608;28;20225;-77
2022/01/20 10:10:48;;;;;;;11.57;1.77;;;;;;;;;;5084675;28;20576;-77
2022/01/20 10:13:17;;;;;;;17.10;2.07;;;;;;;;;;5087806;28;20233;-77
2022/01/20 10:15:55;;;;;;;15.40;5.50;;;;;;;;;;5085984;28;20209;-77
2022/01/20 10:18:22;;;;;;;15.30;2.00;;;;;;;;;;5087324;28;20220;-78
2022/01/20 10:20:54;;;;;;;7.83;1.50;;;;;;;;;;5090779;28;20674;-77
2022/01/20 10:23:36;;;;;;;11.87;1.53;;;;;;;;;;5085800;28;20225;-76
2022/01/20 10:26:04;;;;;;;6.23;1.67;;;;;;;;;;5084311;28;20202;-77
2022/01/20 10:28:31;;;;;;;7.83;1.77;;;;;;;;;;5086655;28;20201;-78
2022/01/20 10:31:00;;;;;;;13.40;2.30;;;;;;;;;;5086144;28;20669;-78
2022/01/20 10:33:27;;;;;;;11.20;1.33;;;;;;;;;;5085508;28;20306;-77
2022/01/20 10:35:54;;;;;;;17.00;1.67;;;;;;;;;;5088580;28;20214;-77
2022/01/20 10:38:22;;;;;;;9.10;1.27;;;;;;;;;;5092406;28;20293;-77
2022/01/20 10:40:50;;;;;;;11.57;1.40;;;;;;;;;;5090110;28;20263;-77
2022/01/20 10:43:21;;;;;;;14.57;2.37;;;;;;;;;;5089551;28;20230;-78
2022/01/20 10:45:51;;;;;;;8.70;1.87;;;;;;;;;;5089435;28;20316;-77
2022/01/20 10:48:20;;;;;;;7.67;1.60;;;;;;;;;;5087831;28;20203;-77
2022/01/20 10:50:48;;;;;;;4.70;1.10;;;;;;;;;;5088599;28;20654;-77
2022/01/20 10:53:18;;;;;;;10.63;1.47;;;;;;;;;;5089480;28;20213;-76
2022/01/20 10:55:46;;;;;;;9.67;1.70;;;;;;;;;;5088575;28;20257;-78
2022/01/20 10:58:15;;;;;;;7.93;1.40;;;;;;;;;;5091794;28;20573;-77
2022/01/20 11:00:43;;;;;;;6.70;1.53;;;;;;;;;;5088533;28;20547;-76
2022/01/20 11:03:10;;;;;;;10.90;1.50;;;;;;;;;;5086029;28;20218;-77
2022/01/20 11:05:39;;;;;;;10.60;1.50;;;;;;;;;;5089602;28;20240;-77
2022/01/20 11:08:07;;;;;;;10.73;2.20;;;;;;;;;;5092294;28;20232;-77
2022/01/20 11:10:34;;;;;;;8.23;1.73;;;;;;;;;;5097780;28;20213;-78
2022/01/20 11:13:01;;;;;;;9.40;2.40;;;;;;;;;;5094182;28;20403;-77
2022/01/20 11:15:29;;;;;;;5.20;1.30;;;;;;;;;;5085447;28;20308;-78
2022/01/20 11:17:57;;;;;;;11.30;2.00;;;;;;;;;;5088432;28;20221;-79
2022/01/20 11:20:27;;;;;;;12.43;1.77;;;;;;;;;;5090117;28;20213;-79
2022/01/20 11:22:57;;;;;;;10.43;2.30;;;;;;;;;;5087799;28;20233;-79
2022/01/20 11:25:26;;;;;;;12.57;2.40;;;;;;;;;;5081915;28;20581;-79
2022/01/20 11:28:04;;;;;;;16.50;2.60;;;;;;;;;;5084851;28;20251;-79
2022/01/20 11:30:33;;;;;;;9.10;2.20;;;;;;;;;;5086953;28;20245;-79
2022/01/20 11:33:01;;;;;;;31.67;6.63;;;;;;;;;;5078065;28;20233;-79
2022/01/20 11:35:42;;;;;;;13.67;2.90;;;;;;;;;;5088642;28;20212;-79
2022/01/20 11:38:11;;;;;;;16.17;2.33;;;;;;;;;;5077551;28;20305;-79
2022/01/20 11:40:50;;;;;;;13.00;3.00;;;;;;;;;;5078322;28;20207;-79
2022/01/20 11:43:18;;;;;;;10.50;1.90;;;;;;;;;;5086118;28;20730;-79
2022/01/20 11:45:47;;;;;;;9.90;2.23;;;;;;;;;;5089016;28;20205;-79
2022/01/20 11:48:16;;;;;;;8.47;1.93;;;;;;;;;;5079790;28;20203;-79
2022/01/20 11:50:43;;;;;;;11.87;2.13;;;;;;;;;;5074397;28;21710;-79
2022/01/20 11:53:13;;;;;;;10.27;2.00;;;;;;;;;;5087050;28;20226;-79
2022/01/20 11:55:48;;;;;;;10.93;1.90;;;;;;;;;;5089817;28;20220;-79
2022/01/20 11:58:16;;;;;;;10.37;1.60;;;;;;;;;;5085355;28;20293;-79
2022/01/20 12:00:43;;;;;;;11.33;2.43;;;;;;;;;;5091248;28;20206;-79
2022/01/20 12:03:11;;;;;;;19.20;2.13;;;;;;;;;;5088295;28;20217;-79
2022/01/20 12:05:39;;;;;;;10.57;1.63;;;;;;;;;;5089023;28;20209;-79
2022/01/20 12:08:11;;;;;;;14.70;4.83;;;;;;;;;;5090368;28;20194;-79
2022/01/20 12:10:40;;;;;;;17.00;2.40;;;;;;;;;;5089160;28;20201;-79
2022/01/20 12:13:08;;;;;;;11.60;2.03;;;;;;;;;;5089632;28;20221;-79
2022/01/20 12:15:35;;;;;;;9.17;2.40;;;;;;;;;;5090764;28;20288;-79
2022/01/20 12:18:02;;;;;;;13.37;2.40;;;;;;;;;;5087951;28;20308;-78
2022/01/20 12:20:29;;;;;;;13.60;2.90;;;;;;;;;;5088326;28;20640;-78
2022/01/20 12:22:56;;;;;;;8.87;2.77;;;;;;;;;;5087559;28;20257;-79
2022/01/20 12:25:26;;;;;;;13.33;1.83;;;;;;;;;;5090674;28;20289;-79
2022/01/20 12:28:02;;;;;;;8.80;2.50;;;;;;;;;;5087373;28;20210;-79
2022/01/20 12:30:30;;;;;;;10.00;2.70;;;;;;;;;;5086373;28;20304;-79
2022/01/20 12:32:58;;;;;;;13.43;3.07;;;;;;;;;;5088483;28;20259;-78
2022/01/20 12:35:26;;;;;;;6.07;1.57;;;;;;;;;;5089736;28;20290;-78
2022/01/20 12:37:53;;;;;;;11.70;3.00;;;;;;;;;;5086794;28;20248;-79
2022/01/20 12:40:21;;;;;;;9.90;1.80;;;;;;;;;;5087563;28;20233;-79
2022/01/20 12:42:49;;;;;;;10.13;2.17;;;;;;;;;;5081637;28;20308;-79
2022/01/20 12:48:13;;;;;;;9.77;2.13;;;;;;;;;;5086171;28;20279;-77
2022/01/20 12:50:50;;;;;;;10.03;2.67;;;;;;;;;;5082925;28;20665;-78
2022/01/20 12:53:18;;;;;;;14.23;2.03;;;;;;;;;;5087271;28;20301;-77
2022/01/20 12:55:51;;;;;;;14.40;2.73;;;;;;;;;;5084977;28;20233;-78
2022/01/20 12:58:18;;;;;;;13.70;4.33;;;;;;;;;;5083984;28;20726;-78
2022/01/20 13:00:58;;;;;;;10.17;2.60;;;;;;;;;;5086722;28;20198;-77
2022/01/20 13:03:34;;;;;;;14.50;3.13;;;;;;;;;;5082981;28;20666;-78
2022/01/20 13:06:01;;;;;;;12.50;2.67;;;;;;;;;;5087516;28;20296;-77
2022/01/20 13:08:32;;;;;;;15.97;2.33;;;;;;;;;;5086271;28;20225;-77
2022/01/20 13:11:02;;;;;;;14.63;3.10;;;;;;;;;;5084268;28;20263;-77
2022/01/20 13:13:30;;;;;;;13.27;2.07;;;;;;;;;;5085244;28;20261;-77
2022/01/20 13:15:58;;;;;;;9.27;1.97;;;;;;;;;;5079122;28;20241;-77
2022/01/20 13:18:26;;;;;;;7.97;2.13;;;;;;;;;;5086243;28;20248;-77
2022/01/20 13:20:58;;;;;;;17.63;2.27;;;;;;;;;;5083187;28;20212;-77
2022/01/20 13:26:10;;;;;;;11.50;2.00;;;;;;;;;;5084849;28;20209;-77
2022/01/20 13:28:38;;;;;;;11.30;3.90;;;;;;;;;;5084655;28;20227;-78
2022/01/20 13:31:16;;;;;;;7.93;2.23;;;;;;;;;;5085242;28;20262;-78
2022/01/20 13:33:44;;;;;;;25.40;7.57;;;;;;;;;;5081822;28;20308;-78
2022/01/20 13:36:11;;;;;;;13.27;2.10;;;;;;;;;;5082217;28;20214;-78
2022/01/20 13:38:45;;;;;;;11.07;2.57;;;;;;;;;;5082500;28;20268;-78
2022/01/20 13:41:13;;;;;;;19.33;3.13;;;;;;;;;;5084034;28;20221;-77
2022/01/20 13:46:32;;;;;;;13.07;2.37;;;;;;;;;;5081523;28;20205;-77
2022/01/20 13:49:07;;;;;;;11.60;2.20;;;;;;;;;;5086088;28;20197;-78
2022/01/20 13:51:35;;;;;;;16.27;2.50;;;;;;;;;;5086226;28;20758;-77
2022/01/20 13:54:02;;;;;;;8.83;1.97;;;;;;;;;;5084874;28;20303;-78
2022/01/20 13:56:30;;;;;;;12.33;1.97;;;;;;;;;;5085958;28;20256;-78
2022/01/20 13:59:03;;;;;;;15.70;2.47;;;;;;;;;;5084576;28;20213;-78
2022/01/20 14:01:30;;;;;;;14.57;2.30;;;;;;;;;;5082770;28;20209;-78
2022/01/20 14:03:58;;;;;;;11.07;2.27;;;;;;;;;;5083210;28;20308;-78
2022/01/20 14:06:26;;;;;;;8.77;2.90;;;;;;;;;;5082976;28;20193;-77
2022/01/20 14:08:53;;;;;;;12.53;2.20;;;;;;;;;;5088371;28;20201;-77
2022/01/20 14:11:21;;;;;;;12.77;2.03;;;;;;;;;;5089063;28;20205;-78
2022/01/20 14:13:48;;;;;;;13.90;2.20;;;;;;;;;;5085864;28;20217;-77
2022/01/20 14:16:15;;;;;;;10.43;1.70;;;;;;;;;;5080915;28;20225;-77
2022/01/20 14:18:44;;;;;;;12.27;2.03;;;;;;;;;;5078924;28;20222;-78
2022/01/20 14:21:14;;;;;;;11.33;2.20;;;;;;;;;;5087517;28;20297;-78
2022/01/20 14:23:41;;;;;;;12.17;2.20;;;;;;;;;;5086842;28;20253;-78
2022/01/20 14:26:12;;;;;;;12.63;2.23;;;;;;;;;;5084417;28;20209;-78
2022/01/20 14:28:39;;;;;;;11.17;2.83;;;;;;;;;;5087336;28;20202;-78
2022/01/20 14:31:06;;;;;;;12.33;2.77;;;;;;;;;;5087016;28;20204;-77
2022/01/20 14:33:33;;;;;;;9.57;2.30;;;;;;;;;;5086831;28;20263;-77
2022/01/20 14:36:01;;;;;;;10.70;2.60;;;;;;;;;;5083582;28;20256;-78
2022/01/20 14:38:29;;;;;;;12.37;2.30;;;;;;;;;;5087502;28;20766;-78
2022/01/20 14:40:56;;;;;;;6.37;1.70;;;;;;;;;;5086558;28;20661;-77
2022/01/20 14:43:24;;;;;;;10.17;2.60;;;;;;;;;;5085144;28;20233;-77
2022/01/20 14:45:53;;;;;;;7.47;2.30;;;;;;;;;;5085524;28;20194;-77
2022/01/20 14:48:21;;;;;;;12.23;1.80;;;;;;;;;;5090202;28;20293;-77
2022/01/20 14:50:48;;;;;;;14.70;2.40;;;;;;;;;;5087060;28;20222;-77
2022/01/20 14:53:15;;;;;;;7.43;1.63;;;;;;;;;;5085024;28;20308;-78
2022/01/20 14:55:45;;;;;;;13.13;2.60;;;;;;;;;;5085514;28;20629;-78
2022/01/20 14:58:12;;;;;;;11.37;2.27;;;;;;;;;;5081780;28;20228;-78
2022/01/20 15:00:42;;;;;;;11.77;2.43;;;;;;;;;;5082704;28;20198;-77
2022/01/20 15:03:12;;;;;;;11.87;2.60;;;;;;;;;;5078139;28;20226;-77
2022/01/20 15:05:39;;;;;;;6.23;1.67;;;;;;;;;;5084050;28;20255;-77
2022/01/20 15:08:07;;;;;;;15.03;2.50;;;;;;;;;;5080402;28;20212;-77
2022/01/20 15:10:34;;;;;;;14.97;2.00;;;;;;;;;;5086180;28;20274;-77
2022/01/20 15:13:02;;;;;;;13.27;3.00;;;;;;;;;;5084085;28;20319;-78
2022/01/20 15:15:30;;;;;;;18.53;3.00;;;;;;;;;;5084195;28;20205;-77
2022/01/20 15:17:57;;;;;;;7.90;2.00;;;;;;;;;;5087376;28;20312;-77
2022/01/20 15:20:24;;;;;;;11.30;2.67;;;;;;;;;;5084859;28;20213;-78
2022/01/20 15:22:52;;;;;;;11.57;2.50;;;;;;;;;;5085127;28;20247;-77
2022/01/20 15:25:19;;;;;;;10.77;2.70;;;;;;;;;;5088563;28;20244;-77
2022/01/20 15:27:46;;;;;;;13.67;2.60;;;;;;;;;;5089882;28;20285;-77
2022/01/20 15:30:15;;;;;;;12.57;3.20;;;;;;;;;;5087903;28;20201;-77
2022/01/20 15:32:42;;;;;;;14.33;2.57;;;;;;;;;;5091246;28;20255;-77
2022/01/20 15:35:10;;;;;;;18.50;5.77;;;;;;;;;;5082933;28;20213;-77
2022/01/20 15:37:37;;;;;;;12.07;3.60;;;;;;;;;;5083371;28;20256;-77
2022/01/20 15:40:05;;;;;;;14.00;3.70;;;;;;;;;;5087996;28;20220;-78
2022/01/20 15:42:33;;;;;;;19.20;3.57;;;;;;;;;;5088690;28;20236;-77